Time;durP1;ratioP1;P1;durP2;ratioP2;P2;SDS_P1;SDS_P2;PMS_P1;PMS_P2;Temp;Humidity;BMP_temperature;BMP_pressure;BME280_temperature;BME280_humidity;BME280_pressure;Samples;Min_cycle;Max_cycle;Signal;HPM_P1;HPM_P2
2023/01/02 00:00:45;;;;;;;34.27;25.97;;;;;;;7.81;100.00;148008.81;5093187;28;20184;-61
2023/01/02 00:03:12;;;;;;;34.00;25.60;;;;;;;7.84;100.00;148016.44;5093481;28;20548;-61
2023/01/02 00:05:39;;;;;;;32.87;22.43;;;;;;;7.74;100.00;147991.19;5093359;28;20194;-62
2023/01/02 00:08:06;;;;;;;30.77;23.63;;;;;;;7.78;100.00;148002.53;5093425;28;20184;-62
2023/01/02 00:10:33;;;;;;;26.50;20.33;;;;;;;7.66;100.00;147971.00;5093398;28;20559;-62
2023/01/02 00:13:01;;;;;;;23.77;21.10;;;;;;;7.55;100.00;147944.56;5093282;28;20230;-62
2023/01/02 00:15:28;;;;;;;21.53;18.77;;;;;;;7.45;100.00;147919.31;5092919;28;20188;-62
2023/01/02 00:17:55;;;;;;;22.90;19.03;;;;;;;7.09;100.00;147829.78;5093301;28;20188;-62
2023/01/02 00:20:21;;;;;;;22.30;18.30;;;;;;;7.08;100.00;147827.31;5092685;28;20276;-61
2023/01/02 00:22:48;;;;;;;21.77;19.47;;;;;;;6.99;100.00;147803.34;5093099;28;20627;-61
2023/01/02 00:25:15;;;;;;;30.97;21.37;;;;;;;7.04;100.00;147815.97;5092431;28;20183;-61
2023/01/02 00:27:42;;;;;;;25.53;21.20;;;;;;;6.72;100.00;147737.81;5092616;28;20235;-61
2023/01/02 00:30:12;;;;;;;30.03;21.63;;;;;;;6.72;100.00;147737.81;5092919;28;20620;-62
2023/01/02 00:32:39;;;;;;;29.07;23.13;;;;;;;6.80;100.00;147757.97;5092517;28;20215;-61
2023/01/02 00:35:07;;;;;;;33.00;23.73;;;;;;;6.61;100.00;147710.13;5092704;28;20200;-62
2023/01/02 00:37:34;;;;;;;25.63;21.40;;;;;;;7.02;100.00;147810.91;5092982;28;20236;-62
2023/01/02 00:40:00;;;;;;;28.23;20.43;;;;;;;7.03;100.00;146923.34;5092830;28;20180;-61
2023/01/02 00:42:27;;;;;;;24.33;20.27;;;;;;;6.97;100.00;147798.28;5092422;28;20191;-62
2023/01/02 00:44:54;;;;;;;22.90;19.87;;;;;;;7.00;100.00;147805.88;5092591;28;20184;-62
2023/01/02 00:47:22;;;;;;;25.47;20.10;;;;;;;7.02;100.00;147812.16;5092678;28;20188;-62
2023/01/02 00:49:49;;;;;;;24.23;19.23;;;;;;;7.02;100.00;147812.16;5092345;28;20566;-61
2023/01/02 00:52:16;;;;;;;22.87;18.70;;;;;;;7.05;100.00;147819.72;5092473;28;20219;-62
2023/01/02 00:54:43;;;;;;;21.57;18.97;;;;;;;6.95;100.00;147794.53;5092530;28;20603;-62
2023/01/02 00:57:10;;;;;;;22.90;18.50;;;;;;;7.01;100.00;147809.63;5092540;28;20317;-61
2023/01/02 00:59:37;;;;;;;27.13;19.33;;;;;;;7.09;100.00;147828.53;5091225;28;20191;-62
2023/01/02 01:02:03;;;;;;;20.13;17.90;;;;;;;7.15;100.00;147844.94;5090839;28;20180;-63
2023/01/02 01:04:34;;;;;;;20.10;17.77;;;;;;;7.16;100.00;147846.22;5092145;28;20187;-62
2023/01/02 01:07:01;;;;;;;24.47;19.00;;;;;;;7.06;100.00;147822.25;5091957;28;20187;-62
2023/01/02 01:09:28;;;;;;;22.53;19.33;;;;;;;7.17;100.00;147848.75;5092198;28;20199;-63
2023/01/02 01:11:55;;;;;;;20.73;18.53;;;;;;;7.19;100.00;147855.03;5091876;28;20209;-62
2023/01/02 01:14:22;;;;;;;18.20;16.37;;;;;;;7.10;100.00;147831.06;5091939;28;20272;-62
2023/01/02 01:16:49;;;;;;;19.60;17.13;;;;;;;7.08;100.00;147826.03;5091893;28;20190;-61
2023/01/02 01:19:16;;;;;;;22.00;19.43;;;;;;;7.06;100.00;147820.97;5091817;28;20203;-63
2023/01/02 01:21:44;;;;;;;19.73;17.67;;;;;;;7.09;100.00;147828.53;5091744;28;20207;-62
2023/01/02 01:24:11;;;;;;;18.93;17.00;;;;;;;6.99;100.00;147803.34;5091713;28;20181;-61
2023/01/02 01:26:38;;;;;;;18.37;16.13;;;;;;;6.82;100.00;147763.03;5091691;28;20195;-62
2023/01/02 01:29:05;;;;;;;20.27;17.40;;;;;;;6.74;100.00;147742.88;5091680;28;20232;-62
2023/01/02 01:31:32;;;;;;;17.50;15.73;;;;;;;6.81;100.00;147760.50;5091966;28;20565;-61
2023/01/02 01:33:59;;;;;;;25.70;17.93;;;;;;;6.77;100.00;147750.44;5091635;28;20539;-62
2023/01/02 01:36:25;;;;;;;18.23;16.57;;;;;;;6.89;100.00;147780.66;5091268;28;20214;-62
2023/01/02 01:38:54;;;;;;;18.07;15.67;;;;;;;6.66;100.00;147722.66;5091998;28;20191;-62
2023/01/02 01:41:24;;;;;;;21.97;17.43;;;;;;;6.79;100.00;147754.16;5091784;28;20188;-62
2023/01/02 01:43:53;;;;;;;21.70;16.07;;;;;;;6.77;100.00;147014.84;5091686;28;20216;-62
2023/01/02 01:46:28;;;;;;;21.83;18.60;;;;;;;6.85;100.00;147726.53;5091464;28;20184;-62
2023/01/02 01:49:02;;;;;;;20.43;18.33;;;;;;;6.91;100.00;141365.97;5091541;28;20197;-62
2023/01/02 01:51:32;;;;;;;19.43;17.43;;;;;;;7.09;100.00;124025.25;5091444;28;20191;-62
2023/01/02 01:54:07;;;;;;;18.43;16.77;;;;;;;7.15;100.00;125686.16;5091583;28;20639;-62
2023/01/02 01:56:37;;;;;;;18.97;15.77;;;;;;;6.96;100.00;147797.03;5091435;28;20194;-62
2023/01/02 01:59:05;;;;;;;18.90;16.97;;;;;;;7.02;100.00;147810.91;5091680;28;20188;-61
2023/01/02 02:01:32;;;;;;;17.73;15.00;;;;;;;6.94;100.00;147790.75;5091265;28;20199;-62
2023/01/02 02:03:59;;;;;;;21.33;18.70;;;;;;;6.95;100.00;147794.53;5091578;28;20633;-62
2023/01/02 02:06:26;;;;;;;20.03;17.73;;;;;;;7.04;100.00;147815.97;5090364;28;20657;-62
2023/01/02 02:08:59;;;;;;;22.50;18.07;;;;;;;6.99;100.00;147803.34;5091680;28;20669;-62
2023/01/02 02:11:28;;;;;;;25.40;17.83;;;;;;;7.11;100.00;147833.59;5091607;28;20550;-62
2023/01/02 02:13:58;;;;;;;22.60;19.10;;;;;;;7.08;100.00;147827.31;5091426;28;20208;-62
2023/01/02 02:16:34;;;;;;;19.80;17.90;;;;;;;6.99;100.00;147803.34;5091053;28;20222;-61
2023/01/02 02:19:38;;;;;;;21.07;18.87;;;;;;;7.12;100.00;147836.13;5091468;28;20550;-62
2023/01/02 02:22:39;;;;;;;19.17;17.17;;;;;;;7.14;100.00;147841.16;5091071;28;20187;-62
2023/01/02 02:25:33;;;;;;;19.37;17.37;;;;;;;7.11;100.00;147834.88;5070923;28;20196;-63
2023/01/02 02:28:35;;;;;;;19.70;16.07;;;;;;;6.83;100.00;147765.50;5091264;28;20228;-62
2023/01/02 02:31:11;;;;;;;18.93;16.60;;;;;;;6.94;100.00;147792.00;5073566;28;20199;-62
2023/01/02 02:33:45;;;;;;;24.20;19.37;;;;;;;6.97;100.00;147798.28;5091286;28;20701;-63
2023/01/02 02:36:20;;;;;;;21.97;19.60;;;;;;;7.04;100.00;137415.75;5091087;28;20196;-63
2023/01/02 02:39:03;;;;;;;22.10;18.80;;;;;;;7.11;100.00;129307.19;5091204;28;20558;-62
2023/01/02 02:41:34;;;;;;;22.77;17.30;;;;;;;7.18;100.00;121080.38;5091256;28;20566;-63
2023/01/02 02:44:15;;;;;;;18.63;17.00;;;;;;;6.92;100.00;146715.81;5091008;28;20184;-62
2023/01/02 02:46:50;;;;;;;18.33;16.37;;;;;;;6.79;100.00;147755.44;5091430;28;20190;-61
2023/01/02 02:49:31;;;;;;;22.27;17.97;;;;;;;6.82;100.00;147761.78;5094573;28;20188;-61
2023/01/02 02:52:06;;;;;;;20.63;17.63;;;;;;;6.84;100.00;135048.53;5094744;28;20195;-62
2023/01/02 02:54:37;;;;;;;20.93;18.33;;;;;;;6.86;100.00;123978.72;5094839;28;20593;-63
2023/01/02 02:57:07;;;;;;;19.80;17.40;;;;;;;6.79;100.00;139180.91;5094481;28;20185;-62
2023/01/02 02:59:36;;;;;;;21.57;18.00;;;;;;;6.70;100.00;144333.63;5094626;28;20555;-62
2023/01/02 03:02:05;;;;;;;24.63;19.67;;;;;;;6.82;100.00;135143.19;5094537;28;20180;-61
2023/01/02 03:04:32;;;;;;;28.73;21.67;;;;;;;6.88;100.00;125629.31;5094767;28;20635;-63
2023/01/02 03:07:11;;;;;;;19.83;17.77;;;;;;;6.84;100.00;122326.81;5094805;28;20278;-63
2023/01/02 03:09:45;;;;;;;21.13;17.03;;;;;;;6.85;100.00;115421.59;5094534;28;20569;-62
2023/01/02 03:12:24;;;;;;;21.30;19.03;;;;;;;6.76;100.00;118362.03;5094423;28;20605;-62
2023/01/02 03:14:58;;;;;;;22.70;18.83;;;;;;;6.85;100.00;115094.00;5094105;28;20196;-62
2023/01/02 03:17:34;;;;;;;22.80;16.73;;;;;;;6.84;100.00;120681.03;5094260;28;20643;-62
2023/01/02 03:20:06;;;;;;;21.33;16.63;;;;;;;6.75;100.00;147305.03;5094352;28;20187;-62
2023/01/02 03:22:38;;;;;;;22.60;19.37;;;;;;;6.54;100.00;147692.44;5092826;28;20274;-62
2023/01/02 03:25:09;;;;;;;27.07;18.67;;;;;;;6.72;100.00;128309.13;5094118;28;20180;-62
2023/01/02 03:27:40;;;;;;;22.93;17.93;;;;;;;6.69;100.00;127312.09;5093813;28;20238;-62
2023/01/02 03:30:11;;;;;;;19.17;16.57;;;;;;;6.67;100.00;137353.41;5094100;28;20559;-62
2023/01/02 03:32:45;;;;;;;20.43;16.77;;;;;;;6.57;100.00;147698.78;5094057;28;20208;-63
2023/01/02 03:35:17;;;;;;;20.90;17.27;;;;;;;6.49;100.00;147678.63;5093927;28;20192;-62
2023/01/02 03:37:48;;;;;;;25.93;19.00;;;;;;;6.43;100.00;147664.75;5094242;28;20200;-63
2023/01/02 03:40:19;;;;;;;21.50;17.80;;;;;;;6.43;100.00;147664.75;5093947;28;20180;-63
2023/01/02 03:42:53;;;;;;;23.47;19.30;;;;;;;6.37;100.00;147650.88;5093702;28;20207;-62
2023/01/02 03:45:26;;;;;;;23.33;18.90;;;;;;;6.23;100.00;147614.38;5094019;28;20562;-62
2023/01/02 03:48:01;;;;;;;19.93;17.67;;;;;;;6.27;100.00;147624.44;5093858;28;20203;-62
2023/01/02 03:50:33;;;;;;;23.20;17.60;;;;;;;5.96;100.00;147548.88;5093666;28;20760;-62
2023/01/02 03:53:01;;;;;;;21.80;18.10;;;;;;;6.08;100.00;147576.56;5093627;28;20235;-62
2023/01/02 03:55:31;;;;;;;21.93;18.67;;;;;;;6.11;100.00;147584.16;5093489;28;20258;-62
2023/01/02 03:58:06;;;;;;;23.27;18.93;;;;;;;5.96;100.00;146593.19;5093511;28;20195;-63
2023/01/02 04:00:40;;;;;;;23.20;18.63;;;;;;;6.17;100.00;139841.84;5093026;28;20187;-62
2023/01/02 04:03:14;;;;;;;22.37;17.73;;;;;;;5.82;100.00;144808.13;5093214;28;20190;-62
2023/01/02 04:05:45;;;;;;;25.87;20.67;;;;;;;6.07;100.00;147575.28;5093187;28;20184;-62
2023/01/02 04:08:18;;;;;;;28.23;21.60;;;;;;;5.97;100.00;138814.59;5093604;28;20607;-63
2023/01/02 04:10:48;;;;;;;25.77;20.63;;;;;;;6.10;100.00;119215.22;5093075;28;20189;-62
2023/01/02 04:13:20;;;;;;;21.97;18.23;;;;;;;6.08;100.00;115600.03;5092988;28;20208;-62
2023/01/02 04:15:49;;;;;;;26.17;16.90;;;;;;;6.07;100.00;139965.19;5092960;28;20196;-62
2023/01/02 04:18:23;;;;;;;21.93;18.10;;;;;;;5.89;100.00;146679.13;5093226;28;20183;-62
2023/01/02 04:20:53;;;;;;;33.67;19.63;;;;;;;6.01;100.00;145960.50;5092959;28;20190;-62
2023/01/02 04:23:25;;;;;;;29.40;20.10;;;;;;;6.03;100.00;140350.59;5093065;28;20207;-62
2023/01/02 04:25:56;;;;;;;31.50;21.57;;;;;;;6.11;100.00;125290.56;5093101;28;20222;-63
2023/01/02 04:28:26;;;;;;;33.60;20.43;;;;;;;6.13;100.00;122509.59;5092547;28;20251;-63
2023/01/02 04:31:00;;;;;;;23.70;18.93;;;;;;;6.13;100.00;124482.34;5093063;28;20547;-62
2023/01/02 04:33:32;;;;;;;26.03;19.63;;;;;;;6.12;100.00;128693.59;5092480;28;20226;-61
2023/01/02 04:36:08;;;;;;;22.50;18.60;;;;;;;6.05;100.00;142841.38;5093045;28;20657;-62
2023/01/02 04:38:34;;;;;;;28.33;19.50;;;;;;;5.86;100.00;147523.66;5092887;28;20653;-63
2023/01/02 04:41:02;;;;;;;20.27;17.00;;;;;;;5.74;100.00;147493.41;5092445;28;20188;-62
2023/01/02 04:43:29;;;;;;;23.53;21.00;;;;;;;5.71;100.00;147485.88;5092731;28;20259;-62
2023/01/02 04:45:56;;;;;;;23.57;20.17;;;;;;;5.84;100.00;128010.63;5092335;28;20203;-61
2023/01/02 04:48:23;;;;;;;30.00;19.80;;;;;;;5.89;100.00;115890.63;5092615;28;20183;-62
2023/01/02 04:50:53;;;;;;;24.27;18.80;;;;;;;5.95;100.00;115902.47;5092638;28;20670;-63
2023/01/02 04:53:20;;;;;;;24.13;19.27;;;;;;;5.88;100.00;120815.00;5092468;28;20207;-63
2023/01/02 04:55:47;;;;;;;26.30;20.87;;;;;;;5.92;100.00;123499.38;5092322;28;20188;-62
2023/01/02 04:58:14;;;;;;;24.83;20.80;;;;;;;5.99;100.00;115582.25;5092766;28;20239;-62
2023/01/02 05:00:41;;;;;;;19.93;17.77;;;;;;;5.81;100.00;136371.59;5092100;28;20195;-62
2023/01/02 05:03:08;;;;;;;19.70;17.67;;;;;;;5.83;100.00;146591.63;5092213;28;20187;-62
2023/01/02 05:05:35;;;;;;;28.13;19.27;;;;;;;5.66;100.00;147473.28;5091999;28;20188;-62
2023/01/02 05:08:03;;;;;;;26.40;19.87;;;;;;;5.78;100.00;141315.22;5092370;28;20188;-61
2023/01/02 05:10:30;;;;;;;25.20;21.57;;;;;;;5.75;100.00;116848.16;5091012;28;20192;-63
2023/01/02 05:12:58;;;;;;;33.27;21.23;;;;;;;5.85;100.00;108999.13;5092275;28;20208;-62
2023/01/02 05:15:26;;;;;;;31.70;22.33;;;;;;;5.84;100.00;100821.22;5092322;28;20184;-62
2023/01/02 05:17:52;;;;;;;28.40;22.17;;;;;;;5.94;100.00;98224.66;5092298;28;20654;-62
2023/01/02 05:20:20;;;;;;;32.37;22.80;;;;;;;5.83;100.00;110961.63;5092196;28;20195;-62
2023/01/02 05:25:34;;;;;;;32.63;21.63;;;;;;;5.83;100.00;98533.41;5092318;28;20171;-62
2023/01/02 05:28:02;;;;;;;30.93;22.43;;;;;;;5.73;100.00;103416.28;5091891;28;20235;-62
2023/01/02 05:30:29;;;;;;;32.60;22.73;;;;;;;5.83;100.00;95921.75;5091785;28;20188;-62
2023/01/02 05:32:56;;;;;;;34.80;22.20;;;;;;;5.79;100.00;102118.63;5092230;28;20188;-62
2023/01/02 05:35:23;;;;;;;39.50;21.57;;;;;;;5.73;100.00;113236.47;5091859;28;20187;-62
2023/01/02 05:37:49;;;;;;;27.67;21.40;;;;;;;5.74;100.00;114221.97;5091774;28;20191;-61
2023/01/02 05:40:16;;;;;;;34.73;21.87;;;;;;;5.56;100.00;120092.16;5091577;28;20184;-63
2023/01/02 05:42:45;;;;;;;23.33;20.13;;;;;;;5.67;100.00;96548.63;5091730;28;20203;-63
2023/01/02 05:45:11;;;;;;;26.13;21.07;;;;;;;5.73;100.00;84182.97;5091532;28;20236;-62
2023/01/02 05:47:38;;;;;;;34.17;21.80;;;;;;;5.77;100.00;79640.47;5091827;28;20206;-62
2023/01/02 05:50:06;;;;;;;29.00;21.40;;;;;;;5.79;100.00;80293.31;5091863;28;20624;-62
2023/01/02 05:52:33;;;;;;;29.97;21.40;;;;;;;5.76;100.00;78341.41;5091990;28;20180;-62
2023/01/02 05:55:00;;;;;;;33.00;21.83;;;;;;;5.63;100.00;73460.34;5092423;28;20235;-63
2023/01/02 05:57:27;;;;;;;26.07;20.50;;;;;;;5.93;100.00;67991.94;5091990;28;20180;-62
2023/01/02 05:59:55;;;;;;;27.10;21.30;;;;;;;6.01;100.00;63794.81;5092044;28;20188;-62
2023/01/02 06:02:22;;;;;;;31.73;22.80;;;;;;;6.15;100.00;56058.44;5091601;28;20190;-63
2023/01/02 06:04:49;;;;;;;32.83;22.73;;;;;;;6.27;100.00;57361.66;5090684;28;20258;-62
2023/01/02 06:07:16;;;;;;;30.50;22.43;;;;;;;6.16;100.00;75797.00;5091955;28;20228;-62
2023/01/02 06:09:42;;;;;;;32.43;21.40;;;;;;;6.32;100.00;101556.38;5091965;28;20199;-62
2023/01/02 06:12:09;;;;;;;31.00;22.03;;;;;;;6.52;100.00;104863.03;5091642;28;20563;-62
2023/01/02 06:14:36;;;;;;;27.40;21.03;;;;;;;6.84;100.00;89883.75;5091746;28;20666;-63
2023/01/02 06:17:04;;;;;;;26.83;18.83;;;;;;;7.15;100.00;120085.44;5091389;28;20185;-62
2023/01/02 06:19:31;;;;;;;31.27;20.53;;;;;;;7.46;100.00;147921.84;5091533;28;20199;-63
2023/01/02 06:21:58;;;;;;;28.03;20.30;;;;;;;7.69;100.00;147979.84;5092160;28;20195;-64
2023/01/02 06:24:25;;;;;;;29.20;19.40;;;;;;;8.22;100.00;148112.31;5095372;28;20184;-63
2023/01/02 06:26:52;;;;;;;27.47;20.40;;;;;;;8.53;100.00;148189.28;5095190;28;20191;-62
2023/01/02 06:29:19;;;;;;;33.27;19.33;;;;;;;9.15;100.00;148344.56;5095282;28;20223;-62
2023/01/02 06:31:46;;;;;;;22.87;18.57;;;;;;;9.48;100.00;148426.63;5095470;28;20203;-63
2023/01/02 06:34:16;;;;;;;34.03;21.40;;;;;;;9.93;100.00;148537.81;5095114;28;20204;-63
2023/01/02 06:36:43;;;;;;;26.03;19.70;;;;;;;10.47;100.00;148674.34;5095603;28;20630;-63
2023/01/02 06:39:10;;;;;;;30.37;20.67;;;;;;;11.07;100.00;148823.50;5095241;28;20188;-63
2023/01/02 06:41:37;;;;;;;29.80;18.57;;;;;;;12.01;100.00;149058.81;5095115;28;20184;-64
2023/01/02 06:44:03;;;;;;;29.50;18.30;;;;;;;12.69;100.00;149229.72;5094805;28;20191;-63
2023/01/02 06:46:30;;;;;;;24.67;18.13;;;;;;;13.13;100.00;149338.69;5095561;28;20619;-63
2023/01/02 06:48:57;;;;;;;28.03;17.70;;;;;;;13.60;100.00;149456.50;5094837;28;20195;-63
2023/01/02 06:51:25;;;;;;;20.83;17.00;;;;;;;14.36;100.00;149646.66;5094766;28;20271;-63
2023/01/02 06:53:52;;;;;;;22.80;18.30;;;;;;;15.16;100.00;149848.28;5094431;28;20295;-64
2023/01/02 06:56:20;;;;;;;21.80;18.33;;;;;;;15.71;100.00;149986.63;5094484;28;20180;-64
2023/01/02 06:58:47;;;;;;;24.07;19.17;;;;;;;16.29;100.00;150131.38;5094841;28;20689;-63
2023/01/02 07:01:15;;;;;;;25.40;18.47;;;;;;;16.69;100.00;150233.00;5093523;28;20259;-62
2023/01/02 07:03:43;;;;;;;20.03;18.13;;;;;;;17.06;100.00;150325.69;5094693;28;20238;-64
2023/01/02 07:06:13;;;;;;;22.77;18.07;;;;;;;17.17;96.72;150352.41;5094443;28;20184;-63
2023/01/02 07:08:42;;;;;;;33.10;21.70;;;;;;;17.33;94.67;150393.06;5094679;28;20191;-63
2023/01/02 07:11:12;;;;;;;42.10;25.07;;;;;;;17.29;93.85;150382.88;5094282;28;20196;-64
2023/01/02 07:13:40;;;;;;;34.60;25.00;;;;;;;17.32;93.52;150390.50;5094536;28;20570;-63
2023/01/02 07:16:09;;;;;;;26.03;22.07;;;;;;;17.68;91.18;150482.06;5094476;28;20184;-62
2023/01/02 07:18:36;;;;;;;29.03;22.60;;;;;;;18.19;86.84;150610.47;5094518;28;20629;-63
2023/01/02 07:21:04;;;;;;;26.73;22.23;;;;;;;18.54;83.09;150698.22;5094236;28;20189;-63
2023/01/02 07:23:30;;;;;;;25.07;22.07;;;;;;;19.21;79.14;150864.88;5094628;28;20223;-64
2023/01/02 07:26:00;;;;;;;29.13;21.60;;;;;;;19.61;73.91;150966.72;5094333;28;20191;-63
2023/01/02 07:28:28;;;;;;;34.33;22.23;;;;;;;20.16;70.66;151104.19;5093758;28;20706;-63
2023/01/02 07:30:57;;;;;;;28.92;21.27;;;;;;;20.40;69.59;151166.66;5094082;28;20188;-63
2023/01/02 07:33:23;;;;;;;29.50;21.75;;;;;;;21.15;64.29;151355.22;5092663;28;20187;-63
2023/01/02 07:35:51;;;;;;;29.90;21.85;;;;;;;21.57;62.99;151459.69;5093947;28;20199;-63
2023/01/02 07:38:17;;;;;;;30.50;21.63;;;;;;;22.08;59.08;151589.78;5093796;28;20194;-64
2023/01/02 07:40:44;;;;;;;28.02;20.75;;;;;;;21.73;59.45;151500.47;5093760;28;20184;-64
2023/01/02 07:43:12;;;;;;;25.15;22.08;;;;;;;21.55;62.59;151454.63;5094261;28;20206;-63
2023/01/02 07:45:39;;;;;;;23.77;21.35;;;;;;;22.06;59.39;151584.69;5094016;28;20654;-64
2023/01/02 07:48:06;;;;;;;26.15;20.92;;;;;;;21.04;63.01;151327.16;5093599;28;20184;-63
2023/01/02 07:50:33;;;;;;;22.42;20.23;;;;;;;20.60;65.00;151216.31;5093544;28;20188;-64
2023/01/02 07:53:00;;;;;;;22.02;19.90;;;;;;;20.19;68.85;151113.13;5093584;28;20184;-63
2023/01/02 07:55:27;;;;;;;23.95;21.17;;;;;;;19.93;71.38;151046.94;5093715;28;20204;-64
2023/01/02 07:57:53;;;;;;;22.23;20.23;;;;;;;20.03;72.67;151073.63;5093339;28;20191;-64
2023/01/02 08:00:22;;;;;;;23.85;21.08;;;;;;;20.15;70.90;151101.69;5093651;28;20198;-63
2023/01/02 08:02:51;;;;;;;23.40;20.83;;;;;;;20.31;70.26;151143.75;5093905;28;20527;-64
2023/01/02 08:05:19;;;;;;;22.10;20.10;;;;;;;20.31;71.31;151143.75;5093672;28;20188;-63
2023/01/02 08:07:45;;;;;;;26.15;21.17;;;;;;;21.75;66.22;151506.88;5093503;28;20268;-63
2023/01/02 08:10:13;;;;;;;24.23;21.48;;;;;;;23.06;59.55;151837.25;5093698;28;20316;-64
2023/01/02 08:12:40;;;;;;;22.45;20.48;;;;;;;22.94;57.77;151806.63;5093580;28;20615;-64
2023/01/02 08:15:08;;;;;;;23.08;20.70;;;;;;;24.33;54.92;152156.41;5092954;28;20257;-64
2023/01/02 08:17:36;;;;;;;23.65;20.50;;;;;;;24.90;52.59;152300.78;5092984;28;20184;-63
2023/01/02 08:20:03;;;;;;;27.13;20.92;;;;;;;25.02;51.46;152331.44;5092975;28;20188;-63
2023/01/02 08:22:30;;;;;;;21.63;19.92;;;;;;;24.85;50.15;152287.97;5092925;28;20188;-62
2023/01/02 08:24:57;;;;;;;22.38;20.70;;;;;;;25.19;49.33;152373.59;5092942;28;20183;-64
2023/01/02 08:27:24;;;;;;;23.25;20.95;;;;;;;25.79;48.15;152527.00;5092819;28;20235;-63
2023/01/02 08:29:51;;;;;;;26.98;21.65;;;;;;;26.79;45.36;152778.91;5093036;28;20635;-64
2023/01/02 08:32:18;;;;;;;26.35;21.23;;;;;;;27.48;43.55;152954.25;5092994;28;20188;-64
2023/01/02 08:34:46;;;;;;;23.80;20.45;;;;;;;27.03;42.88;152839.09;5093220;28;20204;-63
2023/01/02 08:37:13;;;;;;;24.30;22.00;;;;;;;27.43;43.21;152941.41;5092889;28;20219;-63
2023/01/02 08:39:40;;;;;;;26.38;21.65;;;;;;;28.36;40.36;153175.69;5092566;28;20196;-64
2023/01/02 08:42:08;;;;;;;27.38;22.25;;;;;;;28.30;40.27;153161.66;5092827;28;20185;-63
2023/01/02 08:44:36;;;;;;;23.55;21.30;;;;;;;29.17;39.36;153381.91;5092781;28;20724;-63
2023/01/02 08:47:03;;;;;;;23.83;20.80;;;;;;;29.56;38.75;153479.31;5092445;28;20199;-63
2023/01/02 08:49:30;;;;;;;24.58;22.30;;;;;;;28.67;39.56;153253.81;5092694;28;20582;-63
2023/01/02 08:51:58;;;;;;;27.98;24.30;;;;;;;28.97;39.37;153330.69;5092692;28;20674;-64
2023/01/02 08:54:25;;;;;;;28.98;25.65;;;;;;;29.33;39.10;153422.94;5091005;28;20209;-62
2023/01/02 08:56:52;;;;;;;27.85;23.48;;;;;;;28.93;38.95;153320.44;5092287;28;20191;-63
2023/01/02 08:59:19;;;;;;;26.83;23.95;;;;;;;29.70;37.72;153515.19;5092505;28;20507;-63
2023/01/02 09:01:46;;;;;;;27.13;24.05;;;;;;;28.87;38.74;153306.34;5092208;28;20188;-63
2023/01/02 09:04:13;;;;;;;33.08;25.63;;;;;;;29.53;38.03;153471.63;5092125;28;20191;-63
2023/01/02 09:06:42;;;;;;;26.25;23.90;;;;;;;29.47;37.81;153458.81;5092466;28;20578;-63
2023/01/02 09:09:11;;;;;;;29.00;25.25;;;;;;;29.73;37.84;153522.88;5092044;28;20188;-64
2023/01/02 09:11:40;;;;;;;25.00;22.33;;;;;;;29.86;36.95;153556.19;5092742;28;20184;-63
2023/01/02 09:14:07;;;;;;;35.97;26.02;;;;;;;30.74;36.74;153780.56;5091713;28;20191;-63
2023/01/02 09:16:34;;;;;;;32.13;26.05;;;;;;;30.31;36.32;153671.56;5092333;28;20566;-63
2023/01/02 09:19:02;;;;;;;32.78;27.33;;;;;;;30.75;36.36;153783.16;5091964;28;20188;-63
2023/01/02 09:21:29;;;;;;;33.72;28.67;;;;;;;31.16;35.93;153887.03;5090936;28;20649;-64
2023/01/02 09:23:56;;;;;;;37.65;31.73;;;;;;;32.27;34.24;154166.78;5092378;28;20547;-63
2023/01/02 09:26:24;;;;;;;38.58;34.50;;;;;;;32.98;33.29;154349.06;5091769;28;20180;-63
2023/01/02 09:28:51;;;;;;;38.90;33.05;;;;;;;32.72;33.59;154282.31;5091783;28;20235;-63
2023/01/02 09:31:18;;;;;;;35.67;31.88;;;;;;;32.70;33.44;154277.19;5091719;28;20184;-63
2023/01/02 09:33:46;;;;;;;36.30;32.53;;;;;;;32.57;33.46;154243.78;5091613;28;20188;-63
2023/01/02 09:36:15;;;;;;;42.70;32.65;;;;;;;33.57;32.54;154498.03;5091992;28;20690;-63
2023/01/02 09:38:42;;;;;;;35.47;31.77;;;;;;;34.15;31.84;154644.53;5091726;28;20188;-63
2023/01/02 09:41:25;;;;;;;33.95;30.23;;;;;;;33.96;31.90;154598.28;5091567;28;20233;-63
2023/01/02 09:43:58;;;;;;;32.15;29.05;;;;;;;33.12;32.20;154383.75;5090697;28;20187;-63
2023/01/02 09:46:32;;;;;;;34.20;30.38;;;;;;;32.71;32.85;154279.78;5091524;28;20176;-63
2023/01/02 09:49:00;;;;;;;32.90;29.77;;;;;;;31.81;33.89;154051.28;5091556;28;20180;-64
2023/01/02 09:51:27;;;;;;;34.72;31.38;;;;;;;31.54;34.59;153983.28;5091543;28;20184;-63
2023/01/02 09:53:54;;;;;;;41.28;35.67;;;;;;;30.85;35.11;153807.53;5092062;28;20192;-63
2023/01/02 09:56:24;;;;;;;40.85;36.45;;;;;;;29.87;36.07;153560.06;5092799;28;20200;-63
2023/01/02 09:58:59;;;;;;;39.75;33.60;;;;;;;30.20;35.95;153642.09;5098169;28;20192;-63
2023/01/02 10:01:32;;;;;;;43.33;36.35;;;;;;;29.61;36.62;153492.13;5098259;28;20190;-63
2023/01/02 10:04:07;;;;;;;45.28;38.10;;;;;;;30.01;35.94;153594.66;5098222;28;20188;-63
2023/01/02 10:06:43;;;;;;;36.45;32.85;;;;;;;30.00;36.01;153592.13;5098395;28;20187;-63
2023/01/02 10:09:16;;;;;;;39.05;29.17;;;;;;;29.69;36.44;153512.63;5098024;28;20184;-63
2023/01/02 10:11:55;;;;;;;32.60;26.33;;;;;;;30.30;36.08;153669.00;5098071;28;20180;-65
2023/01/02 10:14:34;;;;;;;29.95;25.80;;;;;;;30.66;35.58;153758.78;5098254;28;20192;-63
2023/01/02 10:17:03;;;;;;;31.40;25.70;;;;;;;31.91;34.56;154075.66;5098489;28;20191;-63
2023/01/02 10:19:40;;;;;;;27.67;24.60;;;;;;;32.42;33.95;154205.31;5097862;28;20184;-63
2023/01/02 10:22:10;;;;;;;32.47;23.05;;;;;;;32.14;34.39;154135.97;5097885;28;20191;-63
2023/01/02 10:24:44;;;;;;;27.35;23.55;;;;;;;32.58;33.71;154246.34;5097873;28;20184;-63
2023/01/02 10:27:17;;;;;;;30.02;22.45;;;;;;;32.60;33.40;154252.75;5097662;28;20184;-62
2023/01/02 10:29:53;;;;;;;24.45;21.92;;;;;;;32.88;33.46;154323.44;5098065;28;20625;-63
2023/01/02 10:32:21;;;;;;;31.95;21.30;;;;;;;32.85;33.28;154315.69;5097866;28;20188;-63
2023/01/02 10:34:59;;;;;;;21.60;19.50;;;;;;;33.16;33.53;154392.75;5098042;28;20207;-63
2023/01/02 10:37:26;;;;;;;21.48;19.48;;;;;;;33.14;33.00;154388.94;5098332;28;20671;-63
2023/01/02 10:39:54;;;;;;;21.33;18.65;;;;;;;32.59;33.36;154250.16;5097755;28;20180;-63
2023/01/02 10:42:21;;;;;;;19.35;17.85;;;;;;;32.44;33.40;154211.69;5097659;28;20192;-61
2023/01/02 10:44:50;;;;;;;17.98;16.33;;;;;;;32.79;32.52;154300.31;5097658;28;20184;-62
2023/01/02 10:47:22;;;;;;;17.25;15.75;;;;;;;32.53;33.21;154234.81;5097669;28;20180;-61
2023/01/02 10:49:50;;;;;;;15.10;14.10;;;;;;;32.45;32.65;154212.97;5098017;28;20241;-61
2023/01/02 10:52:24;;;;;;;15.10;14.15;;;;;;;31.91;33.38;154075.66;5098030;28;20180;-60
2023/01/02 10:54:53;;;;;;;14.77;13.20;;;;;;;31.72;33.91;154028.16;5097890;28;20200;-61
2023/01/02 10:57:26;;;;;;;12.85;11.95;;;;;;;32.33;32.74;154183.47;5097611;28;20365;-61
2023/01/02 10:59:59;;;;;;;15.13;11.73;;;;;;;32.83;31.71;154309.28;5097606;28;20180;-60
2023/01/02 11:02:30;;;;;;;14.13;12.60;;;;;;;33.50;32.37;154480.06;5097511;28;20184;-60
2023/01/02 11:05:01;;;;;;;11.80;10.63;;;;;;;33.83;30.87;154563.59;5097529;28;20184;-61
2023/01/02 11:07:31;;;;;;;11.82;11.02;;;;;;;34.32;30.47;154688.25;5097589;28;20547;-61
2023/01/02 11:09:58;;;;;;;11.75;10.13;;;;;;;34.75;29.93;154798.81;5094303;28;20184;-59
2023/01/02 11:12:25;;;;;;;11.48;10.52;;;;;;;34.72;30.05;154791.06;5094201;28;20187;-61
2023/01/02 11:14:52;;;;;;;8.02;7.72;;;;;;;33.50;28.97;154481.38;5094713;28;20195;-61
2023/01/02 11:17:22;;;;;;;7.63;7.15;;;;;;;32.43;29.44;154207.81;5094544;28;20593;-61
2023/01/02 11:19:52;;;;;;;12.77;9.98;;;;;;;31.87;31.39;154065.41;5094433;28;20267;-62
2023/01/02 11:22:21;;;;;;;10.23;9.63;;;;;;;31.56;31.57;153988.44;5094008;28;20184;-61